createdAt,value
2017-10-19T00:00:55.679Z,0
2017-10-19T00:01:55.338Z,0
2017-10-19T00:02:55.345Z,0
2017-10-19T00:03:55.265Z,0
2017-10-19T00:04:55.898Z,0
2017-10-19T00:05:55.240Z,0
2017-10-19T00:06:55.324Z,0
2017-10-19T00:07:55.336Z,0
2017-10-19T00:08:55.172Z,0
2017-10-19T00:09:55.171Z,0
2017-10-19T00:10:55.508Z,0
2017-10-19T00:11:55.131Z,0
2017-10-19T00:12:55.104Z,0
2017-10-19T00:13:55.191Z,0
2017-10-19T00:14:55.378Z,0
2017-10-19T00:15:55.361Z,0
2017-10-19T00:16:55.364Z,0
2017-10-19T00:17:55.322Z,0
2017-10-19T00:18:55.630Z,0
2017-10-19T00:19:55.623Z,0
2017-10-19T00:20:55.372Z,0
2017-10-19T00:21:55.358Z,0
2017-10-19T00:22:55.246Z,0
2017-10-19T00:23:55.235Z,0
2017-10-19T00:24:54.877Z,0
2017-10-19T00:25:55.549Z,0
2017-10-19T00:26:55.487Z,0
2017-10-19T00:27:55.127Z,0
2017-10-19T00:28:55.126Z,0
2017-10-19T00:29:55.092Z,0
2017-10-19T00:30:55.421Z,0
2017-10-19T00:31:54.761Z,0
2017-10-19T00:32:55.402Z,0
2017-10-19T00:33:55.090Z,0
2017-10-19T00:34:54.695Z,0
2017-10-19T00:35:55.328Z,0
2017-10-19T00:36:55.340Z,0
2017-10-19T00:37:55.312Z,0
2017-10-19T00:38:54.944Z,0
2017-10-19T00:39:55.258Z,0
2017-10-19T00:40:55.225Z,0
2017-10-19T00:41:55.212Z,0
2017-10-19T00:42:54.561Z,0
2017-10-19T00:43:55.218Z,0
2017-10-19T00:44:55.170Z,0
2017-10-19T00:45:54.829Z,0
2017-10-19T00:46:54.554Z,0
2017-10-19T00:47:55.136Z,0
2017-10-19T00:48:54.439Z,0
2017-10-19T00:49:54.121Z,0
2017-10-19T00:50:54.712Z,0
2017-10-19T00:51:55.044Z,0
2017-10-19T00:52:54.696Z,0
2017-10-19T00:53:54.988Z,0
2017-10-19T00:54:54.710Z,0
2017-10-19T00:55:53.992Z,0
2017-10-19T00:56:54.961Z,0
2017-10-19T00:57:54.262Z,0
2017-10-19T00:58:54.606Z,0
2017-10-19T00:59:54.552Z,0
2017-10-19T01:00:54.201Z,0
2017-10-19T01:01:54.839Z,0
2017-10-19T01:02:54.518Z,0
2017-10-19T01:03:54.808Z,0
2017-10-19T01:04:54.238Z,0
2017-10-19T01:05:54.124Z,0
2017-10-19T01:06:54.099Z,0
2017-10-19T01:07:54.438Z,0
2017-10-19T01:08:54.394Z,0
2017-10-19T01:09:54.706Z,0
2017-10-19T01:10:54.037Z,0
2017-10-19T01:11:54.675Z,0
2017-10-19T01:12:54.633Z,0
2017-10-19T01:13:54.319Z,0
2017-10-19T01:14:54.037Z,0
2017-10-19T01:15:54.311Z,0
2017-10-19T01:16:53.904Z,0
2017-10-19T01:17:54.312Z,0
2017-10-19T01:18:54.577Z,0
2017-10-19T01:19:53.860Z,0
2017-10-19T01:20:54.151Z,0
2017-10-19T01:21:53.172Z,0
2017-10-19T01:22:54.462Z,0
2017-10-19T01:23:54.223Z,0
2017-10-19T01:24:54.429Z,0
2017-10-19T01:25:54.084Z,0
2017-10-19T01:26:53.732Z,0
2017-10-19T01:27:53.713Z,0
2017-10-19T01:28:53.703Z,0
2017-10-19T01:29:53.674Z,0
2017-10-19T01:30:54.312Z,0
2017-10-19T01:31:53.722Z,0
2017-10-19T01:32:54.286Z,0
2017-10-19T01:33:53.911Z,0
2017-10-19T01:34:53.364Z,0
2017-10-19T01:35:53.873Z,0
2017-10-19T01:36:54.196Z,0
2017-10-19T01:37:53.955Z,0
2017-10-19T01:38:53.851Z,0
2017-10-19T01:39:53.232Z,0
2017-10-19T01:40:53.210Z,0
2017-10-19T01:41:54.081Z,0
2017-10-19T01:42:54.110Z,0
2017-10-19T01:43:53.720Z,0
2017-10-19T01:44:52.733Z,0
2017-10-19T01:45:53.374Z,0
2017-10-19T01:46:54.011Z,0
2017-10-19T01:47:52.671Z,0
2017-10-19T01:48:53.620Z,0
2017-10-19T01:49:52.964Z,0
2017-10-19T01:50:53.601Z,0
2017-10-19T01:51:53.914Z,0
2017-10-19T01:52:52.917Z,0
2017-10-19T01:53:53.550Z,0
2017-10-19T01:54:53.562Z,0
2017-10-19T01:55:53.822Z,0
2017-10-19T01:56:53.499Z,0
2017-10-19T01:57:53.463Z,0
2017-10-19T01:58:53.120Z,0
2017-10-19T01:59:53.406Z,0
2017-10-19T02:00:53.729Z,0
2017-10-19T02:01:53.066Z,0
2017-10-19T02:02:53.061Z,0
2017-10-19T02:03:52.709Z,0
2017-10-19T02:04:53.011Z,0
2017-10-19T02:05:52.662Z,0
2017-10-19T02:06:53.033Z,0
2017-10-19T02:07:53.346Z,0
2017-10-19T02:08:52.950Z,0
2017-10-19T02:09:53.228Z,0
2017-10-19T02:10:53.226Z,0
2017-10-19T02:11:53.533Z,0
2017-10-19T02:12:52.928Z,0
2017-10-19T02:13:53.158Z,0
2017-10-19T02:14:52.812Z,0
2017-10-19T02:15:52.791Z,0
2017-10-19T02:16:53.147Z,0
2017-10-19T02:17:52.799Z,0
2017-10-19T02:18:52.758Z,0
2017-10-19T02:19:53.043Z,0
2017-10-19T02:20:53.350Z,0
2017-10-19T02:21:53.068Z,0
2017-10-19T02:22:52.701Z,0
2017-10-19T02:23:52.665Z,0
2017-10-19T02:24:52.970Z,0
2017-10-19T02:25:52.611Z,0
2017-10-19T02:26:52.271Z,0
2017-10-19T02:27:52.582Z,0
2017-10-19T02:28:52.872Z,0
2017-10-19T02:29:52.929Z,0
2017-10-19T02:30:51.870Z,0
2017-10-19T02:31:52.499Z,0
2017-10-19T02:32:52.789Z,0
2017-10-19T02:33:52.788Z,0
2017-10-19T02:34:52.759Z,0
2017-10-19T02:35:52.750Z,0
2017-10-19T02:36:52.752Z,0
2017-10-19T02:37:52.824Z,0
2017-10-19T02:38:52.710Z,0
2017-10-19T02:39:52.703Z,0
2017-10-19T02:40:52.441Z,0
2017-10-19T02:41:52.959Z,0
2017-10-19T02:42:52.633Z,0
2017-10-19T02:43:52.612Z,0
2017-10-19T02:44:52.960Z,0
2017-10-19T02:45:52.570Z,0
2017-10-19T02:46:52.543Z,0
2017-10-19T02:47:52.873Z,0
2017-10-19T02:48:52.250Z,0
2017-10-19T02:49:52.809Z,0
2017-10-19T02:50:52.172Z,0
2017-10-19T02:51:52.443Z,0
2017-10-19T02:52:52.442Z,0
2017-10-19T02:53:52.762Z,0
2017-10-19T02:54:52.725Z,0
2017-10-19T02:55:52.102Z,0
2017-10-19T02:56:52.683Z,0
2017-10-19T02:57:52.031Z,0
2017-10-19T02:58:51.668Z,0
2017-10-19T02:59:52.614Z,0
2017-10-19T03:00:52.621Z,0
2017-10-19T03:01:52.367Z,0
2017-10-19T03:02:52.251Z,0
2017-10-19T03:03:51.957Z,0
2017-10-19T03:04:51.886Z,0
2017-10-19T03:05:51.581Z,0
2017-10-19T03:06:52.161Z,0
2017-10-19T03:07:51.819Z,0
2017-10-19T03:08:51.800Z,0
2017-10-19T03:09:52.251Z,0
2017-10-19T03:10:52.082Z,0
2017-10-19T03:11:52.404Z,0
2017-10-19T03:12:52.400Z,0
2017-10-19T03:13:52.361Z,0
2017-10-19T03:14:52.330Z,0
2017-10-19T03:15:52.301Z,0
2017-10-19T03:16:52.297Z,0
2017-10-19T03:17:52.040Z,0
2017-10-19T03:18:51.606Z,0
2017-10-19T03:19:52.261Z,0
2017-10-19T03:20:51.969Z,0
2017-10-19T03:21:51.234Z,0
2017-10-19T03:22:51.963Z,0
2017-10-19T03:23:51.509Z,0
2017-10-19T03:24:52.143Z,0
2017-10-19T03:25:51.150Z,0
2017-10-19T03:26:51.791Z,0
2017-10-19T03:27:52.091Z,0
2017-10-19T03:28:51.112Z,0
2017-10-19T03:29:51.833Z,0
2017-10-19T03:30:51.400Z,0
2017-10-19T03:31:51.679Z,0
2017-10-19T03:32:51.031Z,0
2017-10-19T03:33:51.997Z,0
2017-10-19T03:34:51.962Z,0
2017-10-19T03:35:51.652Z,0
2017-10-19T03:36:51.928Z,0
2017-10-19T03:37:51.591Z,0
2017-10-19T03:38:51.269Z,0
2017-10-19T03:39:51.605Z,0
2017-10-19T03:40:51.541Z,0
2017-10-19T03:41:51.503Z,0
2017-10-19T03:42:50.839Z,0
2017-10-19T03:43:51.488Z,0
2017-10-19T03:44:50.790Z,0
2017-10-19T03:45:51.752Z,0
2017-10-19T03:46:51.502Z,0
2017-10-19T03:47:51.480Z,0
2017-10-19T03:48:51.369Z,0
2017-10-19T03:49:51.405Z,0
2017-10-19T03:50:51.660Z,0
2017-10-19T03:51:51.311Z,0
2017-10-19T03:52:51.410Z,0
2017-10-19T03:53:51.275Z,0
2017-10-19T03:54:51.267Z,0
2017-10-19T03:55:51.701Z,0
2017-10-19T03:56:51.210Z,0
2017-10-19T03:57:51.239Z,0
2017-10-19T03:58:50.852Z,0
2017-10-19T03:59:51.100Z,0
2017-10-19T04:00:51.136Z,0
2017-10-19T04:01:50.799Z,0
2017-10-19T04:02:50.446Z,0
2017-10-19T04:03:51.401Z,0
2017-10-19T04:04:51.071Z,0
2017-10-19T04:05:50.720Z,0
2017-10-19T04:06:51.072Z,0
2017-10-19T04:07:50.678Z,0
2017-10-19T04:08:50.676Z,0
2017-10-19T04:09:50.630Z,0
2017-10-19T04:10:50.950Z,0
2017-10-19T04:11:50.587Z,0
2017-10-19T04:12:51.235Z,0
2017-10-19T04:13:50.986Z,0
2017-10-19T04:14:51.180Z,0
2017-10-19T04:15:50.894Z,0
2017-10-19T04:16:50.560Z,0
2017-10-19T04:17:50.489Z,0
2017-10-19T04:18:50.902Z,0
2017-10-19T04:19:50.764Z,0
2017-10-19T04:20:51.072Z,0
2017-10-19T04:21:50.403Z,0
2017-10-19T04:22:51.040Z,0
2017-10-19T04:23:50.689Z,0
2017-10-19T04:24:50.668Z,0
2017-10-19T04:25:50.958Z,0
2017-10-19T04:26:50.627Z,0
2017-10-19T04:27:50.329Z,0
2017-10-19T04:28:50.330Z,0
2017-10-19T04:29:50.585Z,0
2017-10-19T04:30:50.249Z,0
2017-10-19T04:31:50.550Z,0
2017-10-19T04:32:50.498Z,0
2017-10-19T04:33:50.585Z,0
2017-10-19T04:34:50.316Z,0
2017-10-19T04:35:50.791Z,0
2017-10-19T04:36:50.410Z,0
2017-10-19T04:37:50.475Z,0
2017-10-19T04:38:50.705Z,0
2017-10-19T04:39:50.381Z,0
2017-10-19T04:40:49.720Z,0
2017-10-19T04:41:50.353Z,0
2017-10-19T04:42:50.314Z,0
2017-10-19T04:43:50.324Z,0
2017-10-19T04:44:50.278Z,0
2017-10-19T04:45:50.287Z,0
2017-10-19T04:46:50.563Z,0
2017-10-19T04:47:50.277Z,0
2017-10-19T04:48:50.540Z,0
2017-10-19T04:49:50.501Z,0
2017-10-19T04:50:50.187Z,0
2017-10-19T04:51:50.165Z,0
2017-10-19T04:52:49.822Z,0
2017-10-19T04:53:50.144Z,0
2017-10-19T04:54:50.086Z,0
2017-10-19T04:55:50.433Z,0
2017-10-19T04:56:50.392Z,0
2017-10-19T04:57:50.406Z,0
2017-10-19T04:58:49.684Z,0
2017-10-19T04:59:50.324Z,0
2017-10-19T05:00:49.672Z,0
2017-10-19T05:01:50.305Z,0
2017-10-19T05:02:50.253Z,0
2017-10-19T05:03:49.297Z,0
2017-10-19T05:04:49.732Z,0
2017-10-19T05:05:49.560Z,0
2017-10-19T05:06:49.211Z,0
2017-10-19T05:07:49.200Z,0
2017-10-19T05:08:50.133Z,0
2017-10-19T05:09:50.148Z,0
2017-10-19T05:10:50.138Z,0
2017-10-19T05:11:49.871Z,0
2017-10-19T05:12:50.072Z,0
2017-10-19T05:13:49.773Z,0
2017-10-19T05:14:50.034Z,0
2017-10-19T05:15:49.755Z,0
2017-10-19T05:16:49.662Z,0
2017-10-19T05:17:49.702Z,0
2017-10-19T05:18:49.965Z,0
2017-10-19T05:19:49.282Z,0
2017-10-19T05:20:49.911Z,0
2017-10-19T05:21:49.892Z,0
2017-10-19T05:22:49.548Z,0
2017-10-19T05:23:49.225Z,0
2017-10-19T05:24:49.297Z,0
2017-10-19T05:25:49.172Z,0
2017-10-19T05:26:49.568Z,0
2017-10-19T05:27:49.780Z,0
2017-10-19T05:28:49.465Z,0
2017-10-19T05:29:49.130Z,0
2017-10-19T05:30:49.069Z,0
2017-10-19T05:31:49.041Z,0
2017-10-19T05:32:49.071Z,0
2017-10-19T05:33:49.011Z,0
2017-10-19T05:34:49.310Z,0
2017-10-19T05:35:49.621Z,0
2017-10-19T05:36:48.952Z,0
2017-10-19T05:37:48.951Z,0
2017-10-19T05:38:49.249Z,0
2017-10-19T05:39:49.228Z,0
2017-10-19T05:40:49.541Z,0
2017-10-19T05:41:49.504Z,0
2017-10-19T05:42:49.491Z,0
2017-10-19T05:43:48.809Z,0
2017-10-19T05:44:49.460Z,0
2017-10-19T05:45:48.791Z,0
2017-10-19T05:46:49.403Z,0
2017-10-19T05:47:48.732Z,0
2017-10-19T05:48:49.086Z,0
2017-10-19T05:49:49.085Z,0
2017-10-19T05:50:49.333Z,0
2017-10-19T05:51:49.075Z,0
2017-10-19T05:52:48.982Z,0
2017-10-19T05:53:48.609Z,0
2017-10-19T05:54:49.271Z,0
2017-10-19T05:55:48.893Z,0
2017-10-19T05:56:48.999Z,0
2017-10-19T05:57:48.872Z,0
2017-10-19T05:58:49.157Z,0
2017-10-19T05:59:49.184Z,0
2017-10-19T06:00:49.157Z,0
2017-10-19T06:01:49.106Z,0
2017-10-19T06:02:48.451Z,5
2017-10-19T06:03:49.094Z,5
2017-10-19T06:04:49.045Z,5
2017-10-19T06:05:48.708Z,5
2017-10-19T06:06:48.043Z,5
2017-10-19T06:07:48.341Z,5
2017-10-19T06:08:48.981Z,5
2017-10-19T06:09:48.689Z,5
2017-10-19T06:10:48.653Z,5
2017-10-19T06:11:48.612Z,5
2017-10-19T06:12:48.642Z,10
2017-10-19T06:13:48.400Z,10
2017-10-19T06:14:47.992Z,10
2017-10-19T06:15:48.245Z,10
2017-10-19T06:16:48.525Z,10
2017-10-19T06:17:48.224Z,10
2017-10-19T06:18:48.544Z,10
2017-10-19T06:19:48.448Z,10
2017-10-19T06:20:48.764Z,10
2017-10-19T06:21:48.161Z,10
2017-10-19T06:22:48.050Z,10
2017-10-19T06:23:48.051Z,15
2017-10-19T06:24:48.341Z,15
2017-10-19T06:25:48.111Z,15
2017-10-19T06:26:47.688Z,15
2017-10-19T06:27:48.003Z,20
2017-10-19T06:28:48.045Z,20
2017-10-19T06:29:48.257Z,25
2017-10-19T06:30:48.010Z,25
2017-10-19T06:31:48.270Z,25
2017-10-19T06:32:48.270Z,30
2017-10-19T06:33:48.480Z,30
2017-10-19T06:34:47.840Z,30
2017-10-19T06:35:48.130Z,30
2017-10-19T06:36:48.162Z,35
2017-10-19T06:37:47.881Z,35
2017-10-19T06:38:48.071Z,40
2017-10-19T06:39:48.082Z,40
2017-10-19T06:40:48.120Z,45
2017-10-19T06:41:47.709Z,50
2017-10-19T06:42:47.728Z,55
2017-10-19T06:43:48.298Z,60
2017-10-19T06:44:47.734Z,70
2017-10-19T06:45:48.001Z,75
2017-10-19T06:46:48.260Z,85
2017-10-19T06:47:48.000Z,85
2017-10-19T06:48:47.952Z,95
2017-10-19T06:49:47.951Z,100
2017-10-19T06:50:47.906Z,110
2017-10-19T06:51:48.178Z,115
2017-10-19T06:52:48.121Z,120
2017-10-19T06:53:48.116Z,130
2017-10-19T06:54:48.110Z,140
2017-10-19T06:55:48.121Z,145
2017-10-19T06:56:47.423Z,155
2017-10-19T06:57:48.060Z,160
2017-10-19T06:58:47.393Z,170
2017-10-19T06:59:48.025Z,180
2017-10-19T07:00:47.381Z,185
2017-10-19T07:01:47.999Z,170
2017-10-19T07:02:47.971Z,135
2017-10-19T07:03:47.983Z,105
2017-10-19T07:04:47.943Z,105
2017-10-19T07:05:48.081Z,110
2017-10-19T07:06:47.913Z,110
2017-10-19T07:07:47.903Z,115
2017-10-19T07:08:47.862Z,115
2017-10-19T07:09:47.853Z,115
2017-10-19T07:10:47.894Z,120
2017-10-19T07:11:47.523Z,125
2017-10-19T07:12:47.469Z,125
2017-10-19T07:13:47.463Z,130
2017-10-19T07:14:47.451Z,135
2017-10-19T07:15:47.428Z,140
2017-10-19T07:16:47.419Z,145
2017-10-19T07:17:47.792Z,145
2017-10-19T07:18:47.402Z,155
2017-10-19T07:19:47.047Z,200
2017-10-19T07:20:47.678Z,295
2017-10-19T07:21:47.425Z,355
2017-10-19T07:22:47.110Z,360
2017-10-19T07:23:47.293Z,380
2017-10-19T07:24:47.623Z,405
2017-10-19T07:25:47.715Z,415
2017-10-19T07:26:47.741Z,425
2017-10-19T07:27:47.252Z,435
2017-10-19T07:28:46.912Z,450
2017-10-19T07:29:47.625Z,455
2017-10-19T07:30:46.977Z,460
2017-10-19T07:31:46.849Z,460
2017-10-19T07:32:47.492Z,470
2017-10-19T07:33:47.171Z,485
2017-10-19T07:34:47.462Z,515
2017-10-19T07:35:47.143Z,530
2017-10-19T07:36:46.578Z,540
2017-10-19T07:37:47.428Z,545
2017-10-19T07:38:47.103Z,550
2017-10-19T07:39:47.120Z,555
2017-10-19T07:40:47.456Z,565
2017-10-19T07:41:46.753Z,585
2017-10-19T07:42:46.786Z,610
2017-10-19T07:43:46.411Z,620
2017-10-19T07:44:46.721Z,620
2017-10-19T07:45:46.693Z,630
2017-10-19T07:46:46.992Z,645
2017-10-19T07:47:46.711Z,650
2017-10-19T07:48:47.345Z,655
2017-10-19T07:49:46.643Z,665
2017-10-19T07:50:47.393Z,675
2017-10-19T07:51:47.071Z,685
2017-10-19T07:52:47.393Z,690
2017-10-19T07:53:46.613Z,720
2017-10-19T07:54:47.237Z,750
2017-10-19T07:55:46.903Z,765
2017-10-19T07:56:46.252Z,750
2017-10-19T07:57:46.280Z,710
2017-10-19T07:58:47.179Z,680
2017-10-19T07:59:47.192Z,735
2017-10-19T08:00:47.201Z,810
2017-10-19T08:01:46.833Z,795
2017-10-19T08:02:46.873Z,715
2017-10-19T08:03:46.825Z,740
2017-10-19T08:04:46.801Z,770
2017-10-19T08:05:46.785Z,770
2017-10-19T08:06:47.135Z,760
2017-10-19T08:07:46.773Z,705
2017-10-19T08:08:47.085Z,815
2017-10-19T08:09:46.774Z,805
2017-10-19T08:10:47.082Z,800
2017-10-19T08:11:46.731Z,820
2017-10-19T08:12:46.788Z,855
2017-10-19T08:13:46.725Z,855
2017-10-19T08:14:46.715Z,855
2017-10-19T08:15:46.713Z,840
2017-10-19T08:16:47.034Z,820
2017-10-19T08:17:46.683Z,820
2017-10-19T08:18:46.692Z,835
2017-10-19T08:19:46.676Z,845
2017-10-19T08:20:46.993Z,835
2017-10-19T08:21:46.652Z,835
2017-10-19T08:22:47.025Z,850
2017-10-19T08:23:47.062Z,865
2017-10-19T08:24:46.963Z,845
2017-10-19T08:25:46.990Z,845
2017-10-19T08:26:47.050Z,720
2017-10-19T08:27:46.705Z,725
2017-10-19T08:28:45.625Z,890
2017-10-19T08:29:46.605Z,890
2017-10-19T08:30:46.642Z,895
2017-10-19T08:31:46.959Z,855
2017-10-19T08:32:46.972Z,850
2017-10-19T08:33:46.983Z,890
2017-10-19T08:34:46.933Z,945
2017-10-19T08:35:46.548Z,950
2017-10-19T08:36:46.206Z,1000
2017-10-19T08:37:46.223Z,1030
2017-10-19T08:38:46.190Z,995
2017-10-19T08:39:46.273Z,990
2017-10-19T08:40:46.827Z,985
2017-10-19T08:41:46.194Z,965
2017-10-19T08:42:46.802Z,970
2017-10-19T08:43:46.512Z,1075
2017-10-19T08:44:46.476Z,1045
2017-10-19T08:45:46.453Z,1000
2017-10-19T08:46:46.468Z,955
2017-10-19T08:47:46.110Z,970
2017-10-19T08:48:46.253Z,1075
2017-10-19T08:49:46.763Z,1035
2017-10-19T08:50:46.745Z,965
2017-10-19T08:51:46.413Z,945
2017-10-19T08:52:46.744Z,970
2017-10-19T08:53:46.738Z,1020
2017-10-19T08:54:46.413Z,995
2017-10-19T08:55:46.124Z,1010
2017-10-19T08:56:46.073Z,995
2017-10-19T08:57:46.707Z,1010
2017-10-19T08:58:46.393Z,1035
2017-10-19T08:59:46.012Z,995
2017-10-19T09:00:46.683Z,1005
2017-10-19T09:01:46.660Z,1075
2017-10-19T09:02:46.397Z,1065
2017-10-19T09:03:46.315Z,1060
2017-10-19T09:04:46.636Z,1060
2017-10-19T09:05:46.632Z,1050
2017-10-19T09:06:45.676Z,1065
2017-10-19T09:07:46.043Z,1075
2017-10-19T09:08:46.603Z,1040
2017-10-19T09:09:46.743Z,1035
2017-10-19T09:10:46.299Z,1000
2017-10-19T09:11:45.955Z,930
2017-10-19T09:12:46.664Z,870
2017-10-19T09:13:45.951Z,900
2017-10-19T09:14:46.624Z,995
2017-10-19T09:15:46.247Z,965
2017-10-19T09:16:46.228Z,1000
2017-10-19T09:17:46.572Z,1075
2017-10-19T09:18:45.573Z,1035
2017-10-19T09:19:46.295Z,975
2017-10-19T09:20:46.223Z,960
2017-10-19T09:21:46.226Z,1070
2017-10-19T09:22:45.946Z,1035
2017-10-19T09:23:46.207Z,990
2017-10-19T09:24:46.204Z,1055
2017-10-19T09:25:45.913Z,1000
2017-10-19T09:26:46.195Z,970
2017-10-19T09:27:46.490Z,1040
2017-10-19T09:28:46.181Z,1000
2017-10-19T09:29:46.186Z,1020
2017-10-19T09:30:46.235Z,1010
2017-10-19T09:31:45.971Z,960
2017-10-19T09:32:45.825Z,990
2017-10-19T09:33:46.130Z,1030
2017-10-19T09:34:46.482Z,990
2017-10-19T09:35:46.484Z,965
2017-10-19T09:36:46.146Z,1030
2017-10-19T09:37:46.446Z,960
2017-10-19T09:38:46.124Z,990
2017-10-19T09:39:45.782Z,1085
2017-10-19T09:40:46.436Z,1010
2017-10-19T09:41:46.205Z,1005
2017-10-19T09:42:46.103Z,1010
2017-10-19T09:43:45.104Z,960
2017-10-19T09:44:46.124Z,980
2017-10-19T09:45:46.441Z,945
2017-10-19T09:46:45.746Z,940
2017-10-19T09:47:46.373Z,965
2017-10-19T09:48:46.403Z,935
2017-10-19T09:49:46.113Z,945
2017-10-19T09:50:46.353Z,955
2017-10-19T09:51:46.404Z,920
2017-10-19T09:52:45.709Z,965
2017-10-19T09:53:46.033Z,940
2017-10-19T09:54:46.363Z,870
2017-10-19T09:55:45.707Z,875
2017-10-19T09:56:46.354Z,920
2017-10-19T09:57:46.334Z,895
2017-10-19T09:58:45.993Z,865
2017-10-19T09:59:46.335Z,960
2017-10-19T10:00:45.680Z,965
2017-10-19T10:01:45.970Z,940
2017-10-19T10:02:46.306Z,865
2017-10-19T10:03:46.276Z,820
2017-10-19T10:04:46.285Z,890
2017-10-19T10:05:45.640Z,865
2017-10-19T10:06:46.287Z,870
2017-10-19T10:07:46.310Z,900
2017-10-19T10:08:46.280Z,900
2017-10-19T10:09:45.633Z,870
2017-10-19T10:10:45.955Z,835
2017-10-19T10:11:45.951Z,845
2017-10-19T10:12:46.005Z,815
2017-10-19T10:13:45.587Z,795
2017-10-19T10:14:46.386Z,755
2017-10-19T10:15:46.251Z,770
2017-10-19T10:16:45.882Z,800
2017-10-19T10:17:46.294Z,765
2017-10-19T10:18:46.218Z,755
2017-10-19T10:19:46.221Z,775
2017-10-19T10:20:46.229Z,805
2017-10-19T10:21:45.873Z,775
2017-10-19T10:22:46.303Z,735
2017-10-19T10:23:46.230Z,745
2017-10-19T10:24:45.525Z,765
2017-10-19T10:25:46.205Z,735
2017-10-19T10:26:46.001Z,715
2017-10-19T10:27:45.833Z,680
2017-10-19T10:28:45.880Z,715
2017-10-19T10:29:46.141Z,845
2017-10-19T10:30:45.488Z,755
2017-10-19T10:31:45.804Z,565
2017-10-19T10:32:46.131Z,505
2017-10-19T10:33:45.799Z,510
2017-10-19T10:34:45.798Z,535
2017-10-19T10:35:45.516Z,555
2017-10-19T10:36:45.767Z,535
2017-10-19T10:37:46.101Z,530
2017-10-19T10:38:46.105Z,535
2017-10-19T10:39:45.812Z,555
2017-10-19T10:40:45.426Z,580
2017-10-19T10:41:46.065Z,600
2017-10-19T10:42:46.068Z,610
2017-10-19T10:43:45.752Z,700
2017-10-19T10:44:45.718Z,805
2017-10-19T10:45:45.714Z,815
2017-10-19T10:46:45.414Z,915
2017-10-19T10:47:45.714Z,970
2017-10-19T10:48:45.363Z,965
2017-10-19T10:49:45.376Z,955
2017-10-19T10:50:45.691Z,980
2017-10-19T10:51:45.710Z,1020
2017-10-19T10:52:45.049Z,1010
2017-10-19T10:53:45.677Z,1005
2017-10-19T10:54:45.681Z,980
2017-10-19T10:55:45.683Z,995
2017-10-19T10:56:45.655Z,1025
2017-10-19T10:57:45.980Z,990
2017-10-19T10:58:45.621Z,995
2017-10-19T10:59:45.721Z,1005
2017-10-19T11:00:45.605Z,1000
2017-10-19T11:01:45.285Z,980
2017-10-19T11:02:45.945Z,980
2017-10-19T11:03:45.615Z,980
2017-10-19T11:04:45.897Z,980
2017-10-19T11:05:45.686Z,930
2017-10-19T11:06:45.938Z,985
2017-10-19T11:07:45.621Z,970
2017-10-19T11:08:45.907Z,975
2017-10-19T11:09:45.586Z,970
2017-10-19T11:10:45.562Z,940
2017-10-19T11:11:45.907Z,920
2017-10-19T11:12:45.859Z,930
2017-10-19T11:13:45.881Z,865
2017-10-19T11:14:45.875Z,790
2017-10-19T11:15:45.202Z,820
2017-10-19T11:16:45.504Z,770
2017-10-19T11:17:45.815Z,770
2017-10-19T11:18:45.829Z,655
2017-10-19T11:19:45.157Z,590
2017-10-19T11:20:45.503Z,595
2017-10-19T11:21:45.820Z,635
2017-10-19T11:22:45.807Z,655
2017-10-19T11:23:45.535Z,615
2017-10-19T11:24:45.783Z,550
2017-10-19T11:25:45.802Z,545
2017-10-19T11:26:45.760Z,705
2017-10-19T11:27:45.484Z,750
2017-10-19T11:28:45.733Z,825
2017-10-19T11:29:45.764Z,835
2017-10-19T11:30:45.750Z,855
2017-10-19T11:31:45.390Z,825
2017-10-19T11:32:45.730Z,875
2017-10-19T11:33:45.693Z,845
2017-10-19T11:34:45.023Z,810
2017-10-19T11:35:45.670Z,745
2017-10-19T11:36:45.414Z,540
2017-10-19T11:37:45.351Z,425
2017-10-19T11:38:45.680Z,350
2017-10-19T11:39:45.756Z,335
2017-10-19T11:40:45.743Z,350
2017-10-19T11:41:45.327Z,440
2017-10-19T11:42:45.724Z,530
2017-10-19T11:43:44.965Z,585
2017-10-19T11:44:45.662Z,725
2017-10-19T11:45:45.625Z,680
2017-10-19T11:46:45.804Z,580
2017-10-19T11:47:45.584Z,580
2017-10-19T11:48:45.596Z,560
2017-10-19T11:49:45.568Z,530
2017-10-19T11:50:45.635Z,505
2017-10-19T11:51:45.554Z,495
2017-10-19T11:52:45.582Z,515
2017-10-19T11:53:45.189Z,515
2017-10-19T11:54:45.503Z,520
2017-10-19T11:55:45.562Z,455
2017-10-19T11:56:45.226Z,435
2017-10-19T11:57:45.144Z,425
2017-10-19T11:58:45.452Z,425
2017-10-19T11:59:45.500Z,420
2017-10-19T12:00:45.103Z,420
2017-10-19T12:01:44.795Z,425
2017-10-19T12:02:45.101Z,400
2017-10-19T12:03:45.438Z,385
2017-10-19T12:04:44.780Z,370
2017-10-19T12:05:45.069Z,355
2017-10-19T12:06:45.070Z,335
2017-10-19T12:07:45.395Z,330
2017-10-19T12:08:45.374Z,315
2017-10-19T12:09:45.052Z,315
2017-10-19T12:10:45.029Z,315
2017-10-19T12:11:45.323Z,325
2017-10-19T12:12:45.026Z,335
2017-10-19T12:13:45.308Z,325
2017-10-19T12:14:45.309Z,280
2017-10-19T12:15:44.647Z,300
2017-10-19T12:16:44.638Z,300
2017-10-19T12:17:44.649Z,295
2017-10-19T12:18:45.271Z,285
2017-10-19T12:19:45.267Z,275
2017-10-19T12:20:45.267Z,275
2017-10-19T12:21:45.224Z,285
2017-10-19T12:22:45.220Z,295
2017-10-19T12:23:45.216Z,290
2017-10-19T12:24:44.892Z,285
2017-10-19T12:25:44.878Z,280
2017-10-19T12:26:44.991Z,295
2017-10-19T12:27:45.349Z,295
2017-10-19T12:28:45.163Z,295
2017-10-19T12:29:44.501Z,295
2017-10-19T12:30:45.163Z,300
2017-10-19T12:31:44.487Z,295
2017-10-19T12:32:44.482Z,290
2017-10-19T12:33:44.788Z,295
2017-10-19T12:34:45.101Z,290
2017-10-19T12:35:45.119Z,280
2017-10-19T12:36:44.752Z,290
2017-10-19T12:37:44.763Z,305
2017-10-19T12:38:44.830Z,300
2017-10-19T12:39:44.408Z,300
2017-10-19T12:40:45.068Z,290
2017-10-19T12:41:44.723Z,290
2017-10-19T12:42:44.705Z,285
2017-10-19T12:43:44.991Z,255
2017-10-19T12:44:44.686Z,250
2017-10-19T12:45:44.464Z,240
2017-10-19T12:46:44.346Z,250
2017-10-19T12:47:44.384Z,240
2017-10-19T12:48:44.648Z,240
2017-10-19T12:49:44.636Z,230
2017-10-19T12:50:44.943Z,230
2017-10-19T12:51:44.283Z,235
2017-10-19T12:52:44.592Z,240
2017-10-19T12:53:44.257Z,240
2017-10-19T12:54:44.603Z,235
2017-10-19T12:55:44.560Z,230
2017-10-19T12:56:44.260Z,225
2017-10-19T12:57:44.553Z,220
2017-10-19T12:58:44.520Z,200
2017-10-19T12:59:44.532Z,195
2017-10-19T13:00:44.541Z,215
2017-10-19T13:01:44.207Z,220
2017-10-19T13:02:44.831Z,225
2017-10-19T13:03:44.483Z,220
2017-10-19T13:04:44.468Z,215
2017-10-19T13:05:44.800Z,215
2017-10-19T13:06:44.450Z,210
2017-10-19T13:07:44.460Z,210
2017-10-19T13:08:44.749Z,210
2017-10-19T13:09:44.766Z,210
2017-10-19T13:10:44.468Z,200
2017-10-19T13:11:44.457Z,205
2017-10-19T13:12:44.401Z,205
2017-10-19T13:13:44.051Z,200
2017-10-19T13:14:44.362Z,200
2017-10-19T13:15:44.670Z,195
2017-10-19T13:16:44.820Z,190
2017-10-19T13:17:44.335Z,190
2017-10-19T13:18:44.351Z,185
2017-10-19T13:19:44.619Z,190
2017-10-19T13:20:44.310Z,180
2017-10-19T13:21:43.980Z,170
2017-10-19T13:22:44.292Z,170
2017-10-19T13:23:44.283Z,165
2017-10-19T13:24:43.934Z,165
2017-10-19T13:25:44.262Z,155
2017-10-19T13:26:44.648Z,155
2017-10-19T13:27:44.656Z,150
2017-10-19T13:28:44.561Z,145
2017-10-19T13:29:44.221Z,145
2017-10-19T13:30:44.551Z,150
2017-10-19T13:31:44.522Z,160
2017-10-19T13:32:44.523Z,175
2017-10-19T13:33:43.866Z,175
2017-10-19T13:34:43.820Z,165
2017-10-19T13:35:44.456Z,165
2017-10-19T13:36:44.164Z,170
2017-10-19T13:37:44.505Z,170
2017-10-19T13:38:43.875Z,175
2017-10-19T13:39:44.090Z,175
2017-10-19T13:40:44.493Z,175
2017-10-19T13:41:44.106Z,175
2017-10-19T13:42:44.504Z,170
2017-10-19T13:43:44.052Z,165
2017-10-19T13:44:44.419Z,155
2017-10-19T13:45:44.035Z,155
2017-10-19T13:46:43.706Z,155
2017-10-19T13:47:44.369Z,160
2017-10-19T13:48:43.990Z,160
2017-10-19T13:49:44.000Z,155
2017-10-19T13:50:44.349Z,155
2017-10-19T13:51:43.950Z,160
2017-10-19T13:52:43.292Z,165
2017-10-19T13:53:43.950Z,175
2017-10-19T13:54:44.283Z,175
2017-10-19T13:55:44.222Z,170
2017-10-19T13:56:44.215Z,160
2017-10-19T13:57:43.567Z,150
2017-10-19T13:58:44.197Z,155
2017-10-19T13:59:43.632Z,160
2017-10-19T14:00:43.857Z,160
2017-10-19T14:01:43.823Z,155
2017-10-19T14:02:43.806Z,160
2017-10-19T14:03:44.145Z,160
2017-10-19T14:04:43.808Z,155
2017-10-19T14:05:43.489Z,145
2017-10-19T14:06:43.790Z,155
2017-10-19T14:07:44.083Z,160
2017-10-19T14:08:43.441Z,160
2017-10-19T14:09:44.090Z,150
2017-10-19T14:10:44.071Z,150
2017-10-19T14:11:43.740Z,155